Fort Smith, AR

1:09 PM CST on February 09, 2016 (GMT -0600)
Fort Smith Regional | | Change Station
CLOSE
Current Station
Airport
Location: Fort Smith,
Elevation: 463 ft
Nearby Weather Stations
Active Advisory: Fire Weather Warning

Elev 463 ft 35.33 °N, 94.36 °W | Updated 16 minutes ago

Clear
Clear
47 °F
Feels Like 47 °F
N
22
Wind Variable Wind from WNW
Gusts 28 mph

Today
High -- | Low -- °F
--% Chance of Precip.
Yesterday
High -- | Low -- °F
Precip. -- in
Pressure 30.16 in
Visibility 10.0 miles
Clouds Clear
Dew Point 11 °F
Humidity 23%
Rainfall 0.00 in
Snow Depth Not available.
7:10 AM 5:53 PM
New Moon, 2% visible
METAR KFSM 091853Z 30019G24KT 10SM CLR 08/M12 A3016 RMK AO2 PK WND 30029/1810 SLP213 T00831117
Pressure 30.16 in
Visibility 10.0 miles
Clouds Clear
Dew Point 11 °F
Humidity 23%
Rainfall 0.00 in
Snow Depth Not available.
7:10 AM 5:53 PM
New Moon, 2% visible
METAR KFSM 091853Z 30019G24KT 10SM CLR 08/M12 A3016 RMK AO2 PK WND 30029/1810 SLP213 T00831117

10-Day Weather Forecast

Almanac

Astronomy

Feb. 09, 2016 Rise Set
Actual Time
Civil Twilight
Nautical Twilight
Astronomical Twilight
Moon
Length of Visible Light
Length of Day
Tomorrow will be .
, % of the Moon is Illuminated

Today's Extremes

State Highs State Lows

Community

WunderPhotos

Upload Photos

1,891,664 photos uploaded!

WunderBlog® & News

Nearby

Air Quality

  Air Quality AQ Index Pollutant
Not available.

Snow Depth

Station Depth Elevation

Earthquake Activity

City Distance Mag. Time & Date
Minimum magnitude displayed is 2.5.

Coastal Water Temperatures

Place Temperature

Stations

Nearby Weather Stations

Station Location Temp. Windchill Dew Point Humidity Wind Precip. Elev Updated Type
                   

Watches & Warnings

Fire Weather Warning
Issued: 1:04 PM CST Feb. 9, 2016 – National Weather Service

... Red flag warning remains in effect until 6 PM CST this evening
for very dry and windy conditions for west central Arkansas...

* affected area... in Arkansas... Crawford... Franklin... and
Sebastian counties.

* Wind... northwesterly winds 15 to 25 mph with gusts to 35 mph.

* Humidity... afternoon humidity of 22 to 27 percent.

* Temperature... high temperatures in the mid 40s to near 50.

* Impacts... any fires that develop will likely spread rapidly.
Outdoor burning is not recommended.

Precautionary/preparedness actions...

* a red flag warning means that a dangerous combination of weather
   conditions and dry vegetation is expected within 24
   hours... favoring rapid growth and spread of any wildfires. The
   primary weather factors include stronger winds... lower
   humidities... and warmer temperatures.